• Join FlightAware (Why Join?)
  • Login
  • US Flag 
09:21AM EDT


 

Airport Tracker/Info


-or-


 

Live Flight TrackerFlight Track Log ✈ PDT4129 ✈ 03-Jul-2013 ✈ KPGV - KCLT

Flight Track Log - Related Links

Times and Time Zones

All times are in EDT time to prevent confusion due to time zone crossing. See the PDT4129 flight status page for this flight to view local times or setup timezone preferences in your user account.

Time Position Orientation Groundspeed Altitude Reporting Facility
EDT Latitude Longitude Course Direction KTS MPH feet Rate Location/Type
07:15AM 35.7272 -77.9464 282° West  Level FlightAware Approximate
07:16AM 35.7390 -78.0171 282° West  Level FlightAware Approximate
07:17AM 35.7500 -78.0879 270° West  Level FlightAware Approximate
07:18AM 35.7614 -78.1562 302° West  Level FlightAware Approximate
07:19AM 35.7763 -78.2254 281° West  Level FlightAware Approximate
07:20AM 35.7879 -78.2962 281° West  Level FlightAware Approximate
07:21AM 35.7995 -78.3670 281° West  Level FlightAware Approximate
07:22AM 35.8111 -78.4379 281° West  Level FlightAware Approximate
07:23AM 35.8226 -78.5087 281° West  Level FlightAware Approximate
07:24AM 35.8340 -78.5796 281° West  Level FlightAware Approximate
07:25AM 35.8454 -78.6505 281° West  Level FlightAware Approximate
07:26AM 35.8568 -78.7215 281° West  Level FlightAware Approximate
07:27AM 35.8660 -78.7925 265° West  Level FlightAware Approximate
07:28AM 35.8608 -78.8646 265° West  Level FlightAware Approximate
07:29AM 35.8555 -78.9366 265° West  Level FlightAware Approximate
07:30AM 35.8502 -79.0086 265° West  Level FlightAware Approximate
07:31AM 35.8448 -79.0806 265° West  Level FlightAware Approximate
07:32AM 35.8394 -79.1526 265° West  Level FlightAware Approximate
07:33AM 35.8340 -79.2246 265° West  Level FlightAware Approximate
07:34AM 35.8285 -79.2965 265° West  Level FlightAware Approximate
07:35AM 35.8230 -79.3685 265° West  Level FlightAware Approximate
07:36AM 35.8174 -79.4404 265° West  Level FlightAware Approximate
07:37AM 35.8098 -79.5121 262° West  Level FlightAware Approximate
07:38AM 35.8018 -79.5837 262° West  Level FlightAware Approximate
07:39AM 35.8001 -79.6558 270° West  Level FlightAware Approximate
07:40AM 35.8003 -79.7280 270° West  Level FlightAware Approximate
07:41AM 35.8004 -79.8003 270° West  Level FlightAware Approximate
07:42AM 35.8004 -79.8725 270° West  Level FlightAware Approximate
07:43AM 35.8005 -79.9448 270° West  Level FlightAware Approximate
07:44AM 35.8004 -80.0171 270° West  Level FlightAware Approximate
07:45AM 35.8004 -80.0893 270° West  Level FlightAware Approximate
07:46AM 35.8002 -80.1616 270° West  Level FlightAware Approximate
07:47AM 35.8001 -80.2338 270° West  Level FlightAware Approximate
07:48AM 35.8000 -80.3061 270° West  Level FlightAware Approximate
07:49AM 35.8000 -80.3783 270° West  Level FlightAware Approximate
07:50AM 35.7880 -80.4423 211° Southwest  Level FlightAware Approximate
07:51AM 35.7380 -80.4799 211° Southwest  Level FlightAware Approximate
07:52AM 35.6921 -80.5246 219° Southwest  Level FlightAware Approximate
07:53AM 35.6446 -80.5666 211° Southwest  Level FlightAware Approximate
07:54AM 35.5927 -80.6055 211° Southwest  Level FlightAware Approximate
07:55AM 35.5408 -80.6444 211° Southwest  Level FlightAware Approximate
07:56AM 35.4930 -80.6904 219° Southwest  Level FlightAware Approximate
07:57AM 35.4433 -80.7334 214° Southwest  Level FlightAware Approximate
07:58AM 35.3931 -80.7752 214° Southwest  Level FlightAware Approximate
07:59AM 35.3399 -80.8101 219° Southwest  Level FlightAware Approximate
08:00AM 35.2928 -80.8572 219° Southwest  Level FlightAware Approximate
08:01AM 35.2419 -80.8977 212° Southwest  Level FlightAware Approximate
08:02AM 35.2137 -80.9491 219° Southwest  Level Estimated
08:03AM 35.2137 -80.9491 39° Northeast  Level Estimated
08:04AM 35.2137 -80.9491 39° Northeast  Level Estimated
08:05AM 35.2137 -80.9491 39° Northeast  Level Estimated
08:06AM 35.2137 -80.9491 39° Northeast  Level Estimated
08:07AM 35.2137 -80.9491 39° Northeast  Level Estimated
08:08AM 35.2137 -80.9491 39° Northeast  Level Estimated
08:09AM 35.2137 -80.9491 39° Northeast  Level Estimated
08:10AM 35.2137 -80.9491 39° Northeast  Level Estimated
08:11AM 35.2137 -80.9491 39° Northeast  Level Estimated
08:12AM 35.2137 -80.9491 39° Northeast  Level Estimated
08:13AM 35.2137 -80.9491 39° Northeast  Level Estimated
08:14AM 35.2137 -80.9491 39° Northeast  Level Estimated
08:15AM 35.2137 -80.9491 39° Northeast  Level Estimated
08:16AM 35.2137 -80.9491 39° Northeast  Level Estimated
08:17AM 35.2137 -80.9491 39° Northeast  Level Estimated